Time;durP1;ratioP1;P1;durP2;ratioP2;P2;SDS_P1;SDS_P2;PMS_P1;PMS_P2;Temp;Humidity;BMP_temperature;BMP_pressure;BME280_temperature;BME280_humidity;BME280_pressure;Samples;Min_cycle;Max_cycle;Signal;HPM_P1;HPM_P2
2021/03/31 00:01:28;;;;;;;6.95;4.15;;;;;;;;;;5035433;28;20202;-81
2021/03/31 00:03:55;;;;;;;5.00;4.00;;;;;;;;;;5034545;28;20187;-82
2021/03/31 00:06:22;;;;;;;4.15;3.20;;;;;;;;;;5034351;28;20233;-82
2021/03/31 00:08:50;;;;;;;4.50;3.47;;;;;;;;;;5034522;28;20218;-81
2021/03/31 00:11:17;;;;;;;6.07;3.80;;;;;;;;;;5034846;28;20210;-82
2021/03/31 00:13:44;;;;;;;4.88;3.65;;;;;;;;;;5034732;28;20661;-82
2021/03/31 00:16:11;;;;;;;6.15;4.03;;;;;;;;;;5036284;28;20218;-82
2021/03/31 00:18:38;;;;;;;4.75;3.70;;;;;;;;;;5038427;28;20206;-81
2021/03/31 00:21:06;;;;;;;5.53;3.90;;;;;;;;;;5038220;28;20573;-82
2021/03/31 00:23:33;;;;;;;7.30;3.75;;;;;;;;;;5039068;28;20187;-81
2021/03/31 00:26:01;;;;;;;6.32;4.82;;;;;;;;;;5037909;28;20669;-82
2021/03/31 00:28:28;;;;;;;5.85;4.22;;;;;;;;;;5037983;28;20209;-82
2021/03/31 00:30:55;;;;;;;5.18;4.55;;;;;;;;;;5038039;28;20274;-82
2021/03/31 00:33:22;;;;;;;4.78;4.13;;;;;;;;;;5037980;28;20195;-82
2021/03/31 00:35:50;;;;;;;5.97;4.68;;;;;;;;;;5037388;28;20227;-83
2021/03/31 00:38:17;;;;;;;4.22;3.70;;;;;;;;;;5038350;28;20221;-82
2021/03/31 00:40:47;;;;;;;7.28;3.85;;;;;;;;;;5038122;28;20191;-82
2021/03/31 00:43:15;;;;;;;5.93;3.97;;;;;;;;;;5038271;28;20191;-82
2021/03/31 00:45:43;;;;;;;5.32;4.22;;;;;;;;;;5037546;28;20731;-82
2021/03/31 00:48:13;;;;;;;7.95;4.05;;;;;;;;;;5037512;28;20238;-82
2021/03/31 00:50:41;;;;;;;5.43;3.80;;;;;;;;;;5037355;28;20266;-82
2021/03/31 00:53:08;;;;;;;5.45;3.85;;;;;;;;;;5038085;28;20878;-82
2021/03/31 00:55:35;;;;;;;5.47;4.50;;;;;;;;;;5037193;28;20782;-81
2021/03/31 00:58:02;;;;;;;4.57;3.75;;;;;;;;;;5037597;28;20187;-82
2021/03/31 01:00:29;;;;;;;6.00;4.03;;;;;;;;;;5037044;28;20742;-82
2021/03/31 01:02:56;;;;;;;6.05;4.40;;;;;;;;;;5037882;28;20187;-83
2021/03/31 01:05:26;;;;;;;4.05;3.65;;;;;;;;;;5037315;28;20578;-81
2021/03/31 01:07:53;;;;;;;5.68;4.05;;;;;;;;;;5037645;28;20187;-82
2021/03/31 01:10:27;;;;;;;6.57;3.95;;;;;;;;;;5037467;28;20226;-82
2021/03/31 01:13:09;;;;;;;4.45;3.38;;;;;;;;;;5037674;28;20186;-82
2021/03/31 01:15:42;;;;;;;3.65;3.22;;;;;;;;;;5036829;28;20230;-82
2021/03/31 01:18:18;;;;;;;5.70;3.53;;;;;;;;;;5037297;28;20198;-82
2021/03/31 01:21:32;;;;;;;5.97;3.35;;;;;;;;;;5037690;28;20178;-82
2021/03/31 01:24:52;;;;;;;4.55;3.65;;;;;;;;;;5037401;28;20189;-81
2021/03/31 01:27:23;;;;;;;6.82;4.13;;;;;;;;;;5032982;28;20199;-82
2021/03/31 01:30:08;;;;;;;5.55;3.90;;;;;;;;;;5037348;28;20809;-82
2021/03/31 01:33:16;;;;;;;7.45;3.70;;;;;;;;;;5037195;28;20182;-82
2021/03/31 01:35:44;;;;;;;5.50;4.40;;;;;;;;;;4995598;28;20257;-82
2021/03/31 01:38:13;;;;;;;6.68;5.95;;;;;;;;;;5036959;28;20210;-82
2021/03/31 01:40:47;;;;;;;4.03;3.63;;;;;;;;;;5037334;28;20182;-82
2021/03/31 01:43:17;;;;;;;4.78;4.18;;;;;;;;;;5037863;28;20194;-81
2021/03/31 01:45:49;;;;;;;5.90;4.30;;;;;;;;;;5036584;28;20769;-82
2021/03/31 01:48:20;;;;;;;5.78;4.13;;;;;;;;;;5037190;28;20198;-82
2021/03/31 01:50:51;;;;;;;7.30;3.90;;;;;;;;;;5037366;28;20210;-81
2021/03/31 01:53:19;;;;;;;5.57;5.03;;;;;;;;;;5036334;28;20668;-80
2021/03/31 01:55:48;;;;;;;6.18;4.00;;;;;;;;;;5036303;28;20226;-82
2021/03/31 01:58:17;;;;;;;3.75;3.42;;;;;;;;;;5037118;28;20680;-82
2021/03/31 02:00:43;;;;;;;6.80;4.13;;;;;;;;;;5036871;28;20206;-82
2021/03/31 02:03:11;;;;;;;6.80;3.80;;;;;;;;;;5035775;28;20203;-82
2021/03/31 02:05:38;;;;;;;4.70;3.55;;;;;;;;;;5035846;28;20234;-82
2021/03/31 02:08:06;;;;;;;5.10;3.70;;;;;;;;;;5036670;28;20187;-82
2021/03/31 02:10:34;;;;;;;4.60;3.55;;;;;;;;;;5036115;28;20214;-81
2021/03/31 02:13:01;;;;;;;4.45;3.17;;;;;;;;;;5036004;28;20187;-82
2021/03/31 02:15:30;;;;;;;4.85;3.42;;;;;;;;;;5035534;28;20740;-82
2021/03/31 02:17:58;;;;;;;5.50;2.83;;;;;;;;;;5036267;28;20209;-81
2021/03/31 02:20:26;;;;;;;7.20;3.00;;;;;;;;;;5036511;28;20190;-82
2021/03/31 02:22:53;;;;;;;3.78;2.67;;;;;;;;;;5036418;28;20218;-82
2021/03/31 02:25:21;;;;;;;3.78;3.10;;;;;;;;;;5035405;28;20230;-82
2021/03/31 02:27:49;;;;;;;3.92;3.33;;;;;;;;;;5035887;28;20588;-82
2021/03/31 02:30:20;;;;;;;5.50;3.92;;;;;;;;;;5036211;28;20203;-81
2021/03/31 02:32:50;;;;;;;5.18;4.10;;;;;;;;;;5036466;28;20208;-82
2021/03/31 02:35:20;;;;;;;4.53;4.07;;;;;;;;;;5036018;28;20218;-82
2021/03/31 02:37:48;;;;;;;5.03;3.90;;;;;;;;;;5036250;28;20183;-82
2021/03/31 02:40:16;;;;;;;7.63;4.07;;;;;;;;;;5036726;28;20206;-82
2021/03/31 02:42:45;;;;;;;3.55;3.20;;;;;;;;;;5028476;28;20183;-82
2021/03/31 02:45:16;;;;;;;4.65;3.80;;;;;;;;;;5035176;28;20230;-82
2021/03/31 02:47:43;;;;;;;5.00;4.38;;;;;;;;;;5027288;28;20193;-82
2021/03/31 02:50:13;;;;;;;7.78;5.63;;;;;;;;;;5035408;28;20206;-81
2021/03/31 02:52:41;;;;;;;5.72;5.03;;;;;;;;;;5035748;28;20717;-81
2021/03/31 02:55:09;;;;;;;5.25;4.18;;;;;;;;;;5035099;28;20230;-82
2021/03/31 02:57:37;;;;;;;5.93;3.83;;;;;;;;;;5035704;28;20194;-82
2021/03/31 03:00:07;;;;;;;5.43;3.75;;;;;;;;;;5035814;28;20221;-82
2021/03/31 03:02:36;;;;;;;4.38;3.72;;;;;;;;;;5034088;28;20179;-81
2021/03/31 03:05:06;;;;;;;4.50;4.10;;;;;;;;;;5035051;28;20232;-82
2021/03/31 03:07:33;;;;;;;4.60;3.65;;;;;;;;;;5035813;28;20187;-81
2021/03/31 03:10:01;;;;;;;4.50;3.95;;;;;;;;;;5035732;28;20241;-82
2021/03/31 03:12:29;;;;;;;4.93;3.80;;;;;;;;;;5035096;28;20202;-82
2021/03/31 03:14:56;;;;;;;4.22;3.60;;;;;;;;;;5034824;28;20356;-82
2021/03/31 03:17:24;;;;;;;6.25;4.63;;;;;;;;;;5035296;28;20556;-82
2021/03/31 03:19:51;;;;;;;5.72;4.45;;;;;;;;;;5034697;28;20236;-82
2021/03/31 03:22:18;;;;;;;5.07;4.57;;;;;;;;;;5035091;28;20210;-80
2021/03/31 03:24:47;;;;;;;7.55;4.20;;;;;;;;;;5035317;28;20248;-81
2021/03/31 03:27:17;;;;;;;5.88;4.90;;;;;;;;;;5035277;28;20224;-82
2021/03/31 03:29:45;;;;;;;5.80;5.13;;;;;;;;;;5036284;28;20229;-82
2021/03/31 03:32:13;;;;;;;4.40;4.00;;;;;;;;;;5035710;28;20266;-82
2021/03/31 03:34:41;;;;;;;4.93;4.22;;;;;;;;;;5034592;28;20205;-82
2021/03/31 03:37:09;;;;;;;5.90;4.85;;;;;;;;;;5035188;28;20286;-82
2021/03/31 03:39:36;;;;;;;7.43;4.97;;;;;;;;;;5035373;28;20194;-82
2021/03/31 03:42:04;;;;;;;5.82;4.68;;;;;;;;;;5035548;28;20175;-82
2021/03/31 03:44:31;;;;;;;6.60;4.75;;;;;;;;;;5034783;28;20245;-82
2021/03/31 03:46:59;;;;;;;5.95;4.15;;;;;;;;;;5035227;28;20312;-82
2021/03/31 03:49:26;;;;;;;5.95;4.82;;;;;;;;;;5035793;28;20206;-82
2021/03/31 03:51:54;;;;;;;5.45;3.97;;;;;;;;;;5037704;28;20674;-82
2021/03/31 03:54:22;;;;;;;7.50;4.63;;;;;;;;;;5038851;28;20205;-82
2021/03/31 03:56:49;;;;;;;4.70;4.15;;;;;;;;;;5039227;28;20236;-82
2021/03/31 03:59:18;;;;;;;9.38;5.07;;;;;;;;;;5039636;28;20205;-82
2021/03/31 04:01:46;;;;;;;4.82;4.07;;;;;;;;;;5039597;28;20194;-82
2021/03/31 04:04:13;;;;;;;6.88;4.78;;;;;;;;;;5039737;28;20190;-82
2021/03/31 04:06:40;;;;;;;5.55;4.90;;;;;;;;;;5030163;28;20233;-81
2021/03/31 04:09:08;;;;;;;4.60;4.15;;;;;;;;;;5038973;28;20209;-82
2021/03/31 04:11:37;;;;;;;6.68;4.97;;;;;;;;;;5039526;28;20210;-82
2021/03/31 04:14:05;;;;;;;6.50;4.03;;;;;;;;;;5039725;28;20839;-82
2021/03/31 04:16:33;;;;;;;7.30;4.47;;;;;;;;;;5038937;28;20256;-82
2021/03/31 04:19:10;;;;;;;6.88;4.47;;;;;;;;;;5039001;28;20238;-80
2021/03/31 04:21:37;;;;;;;6.05;4.32;;;;;;;;;;5039444;28;20628;-82
2021/03/31 04:24:06;;;;;;;7.35;5.00;;;;;;;;;;5038916;28;20214;-81
2021/03/31 04:26:35;;;;;;;4.97;4.47;;;;;;;;;;5037833;28;20582;-82
2021/03/31 04:29:02;;;;;;;5.47;4.82;;;;;;;;;;5038691;28;20598;-82
2021/03/31 04:31:30;;;;;;;7.43;5.13;;;;;;;;;;5038768;28;20803;-81
2021/03/31 04:33:57;;;;;;;5.40;4.50;;;;;;;;;;5039371;28;20202;-81
2021/03/31 04:36:25;;;;;;;6.00;4.97;;;;;;;;;;5039208;28;20226;-82
2021/03/31 04:38:52;;;;;;;7.88;5.03;;;;;;;;;;5038054;28;20217;-82
2021/03/31 04:41:19;;;;;;;5.72;4.60;;;;;;;;;;5038658;28;20656;-82
2021/03/31 04:43:47;;;;;;;7.65;5.53;;;;;;;;;;5039655;28;20256;-82
2021/03/31 04:46:14;;;;;;;6.32;4.65;;;;;;;;;;5038520;28;20736;-83
2021/03/31 04:48:42;;;;;;;4.88;3.80;;;;;;;;;;5038482;28;20183;-83
2021/03/31 04:51:09;;;;;;;5.85;4.72;;;;;;;;;;5038472;28;20230;-83
2021/03/31 04:53:36;;;;;;;4.82;4.43;;;;;;;;;;5038622;28;20341;-83
2021/03/31 04:56:03;;;;;;;5.38;4.25;;;;;;;;;;5037937;28;20222;-81
2021/03/31 04:58:30;;;;;;;10.15;5.68;;;;;;;;;;5038810;28;20551;-83
2021/03/31 05:00:59;;;;;;;8.38;5.20;;;;;;;;;;5039540;28;20187;-82
2021/03/31 05:03:26;;;;;;;6.07;4.90;;;;;;;;;;5039506;28;20224;-84
2021/03/31 05:05:53;;;;;;;5.97;4.90;;;;;;;;;;5040037;28;20226;-82
2021/03/31 05:08:20;;;;;;;6.38;4.70;;;;;;;;;;5040006;28;20301;-83
2021/03/31 05:10:47;;;;;;;7.78;4.88;;;;;;;;;;5038894;28;20233;-83
2021/03/31 05:13:14;;;;;;;6.15;4.47;;;;;;;;;;5039091;28;20273;-83
2021/03/31 05:15:42;;;;;;;7.75;4.38;;;;;;;;;;5029132;28;20593;-83
2021/03/31 05:18:09;;;;;;;6.78;4.70;;;;;;;;;;5038102;28;20233;-86
2021/03/31 05:20:37;;;;;;;7.15;4.25;;;;;;;;;;5037472;28;20213;-84
2021/03/31 05:23:04;;;;;;;5.22;4.43;;;;;;;;;;5037142;28;20255;-82
2021/03/31 05:25:31;;;;;;;6.32;4.80;;;;;;;;;;5034808;28;20241;-84
2021/03/31 05:27:58;;;;;;;4.65;4.25;;;;;;;;;;5035312;28;20202;-83
2021/03/31 05:30:26;;;;;;;5.47;3.63;;;;;;;;;;5035394;28;20230;-83
2021/03/31 05:32:53;;;;;;;6.25;4.80;;;;;;;;;;5036231;28;20209;-83
2021/03/31 05:35:21;;;;;;;5.43;4.45;;;;;;;;;;5035604;28;20578;-83
2021/03/31 05:37:48;;;;;;;5.43;3.80;;;;;;;;;;5037412;28;20214;-82
2021/03/31 05:40:16;;;;;;;6.30;4.50;;;;;;;;;;5038491;28;20210;-85
2021/03/31 05:42:43;;;;;;;5.20;4.25;;;;;;;;;;5038578;28;20253;-85
2021/03/31 05:45:12;;;;;;;4.53;4.07;;;;;;;;;;5037465;28;20610;-84
2021/03/31 05:47:42;;;;;;;4.88;4.40;;;;;;;;;;5038142;28;20738;-85
2021/03/31 05:50:13;;;;;;;10.65;4.93;;;;;;;;;;5039069;28;20206;-84
2021/03/31 05:52:42;;;;;;;20.58;8.05;;;;;;;;;;5039394;28;20214;-84
2021/03/31 05:55:11;;;;;;;5.15;4.65;;;;;;;;;;5037893;28;20234;-84
2021/03/31 05:57:39;;;;;;;4.68;4.15;;;;;;;;;;5039650;28;20241;-84
2021/03/31 06:00:09;;;;;;;6.18;4.53;;;;;;;;;;5039864;28;20213;-84
2021/03/31 06:02:36;;;;;;;9.57;5.70;;;;;;;;;;5039280;28;20619;-84
2021/03/31 06:05:04;;;;;;;5.05;4.55;;;;;;;;;;5038858;28;20226;-83
2021/03/31 06:07:31;;;;;;;6.88;5.07;;;;;;;;;;5038258;28;20206;-84
2021/03/31 06:10:17;;;;;;;9.07;5.82;;;;;;;;;;5038569;28;20194;-84
2021/03/31 06:12:46;;;;;;;8.90;4.75;;;;;;;;;;5039104;28;20229;-85
2021/03/31 06:15:21;;;;;;;11.60;6.70;;;;;;;;;;5038824;28;20289;-81
2021/03/31 06:17:53;;;;;;;12.15;5.35;;;;;;;;;;5039214;28;20810;-83
2021/03/31 06:20:55;;;;;;;6.13;5.10;;;;;;;;;;5039251;28;20213;-84
2021/03/31 06:23:45;;;;;;;6.70;4.53;;;;;;;;;;5038786;28;20615;-83
2021/03/31 06:26:26;;;;;;;6.65;5.22;;;;;;;;;;5038785;28;20637;-84
2021/03/31 06:28:56;;;;;;;9.05;5.30;;;;;;;;;;5039466;28;20202;-84
2021/03/31 06:31:28;;;;;;;6.28;4.57;;;;;;;;;;5039031;28;20226;-84
2021/03/31 06:33:55;;;;;;;7.70;4.88;;;;;;;;;;5039187;28;20233;-84
2021/03/31 06:36:35;;;;;;;8.43;6.05;;;;;;;;;;5038353;28;20222;-84
2021/03/31 06:39:15;;;;;;;9.38;5.68;;;;;;;;;;5039013;28;20206;-84
2021/03/31 06:41:52;;;;;;;8.80;5.43;;;;;;;;;;5037685;28;20206;-84
2021/03/31 06:44:39;;;;;;;5.95;4.70;;;;;;;;;;5039222;28;20206;-84
2021/03/31 06:47:11;;;;;;;8.27;4.90;;;;;;;;;;5038252;28;20292;-82
2021/03/31 06:49:38;;;;;;;7.25;4.88;;;;;;;;;;5037736;28;20206;-84
2021/03/31 06:52:07;;;;;;;6.22;5.03;;;;;;;;;;5037770;28;20709;-84
2021/03/31 06:54:46;;;;;;;6.95;4.55;;;;;;;;;;5038200;28;20229;-84
2021/03/31 06:57:23;;;;;;;6.00;4.32;;;;;;;;;;5039091;28;20241;-84
2021/03/31 06:59:58;;;;;;;8.68;5.47;;;;;;;;;;5038551;28;20198;-83
2021/03/31 07:02:27;;;;;;;9.38;4.97;;;;;;;;;;5038796;28;20212;-83
2021/03/31 07:04:54;;;;;;;8.30;4.65;;;;;;;;;;5038525;28;20218;-84
2021/03/31 07:07:31;;;;;;;8.55;4.60;;;;;;;;;;5037348;28;20209;-84
2021/03/31 07:10:10;;;;;;;8.05;5.05;;;;;;;;;;5037801;28;20206;-84
2021/03/31 07:12:41;;;;;;;7.43;4.97;;;;;;;;;;5038438;28;20218;-84
2021/03/31 07:15:09;;;;;;;8.52;5.50;;;;;;;;;;5037820;28;20233;-84
2021/03/31 07:17:38;;;;;;;6.90;6.25;;;;;;;;;;5038588;28;20237;-84
2021/03/31 07:20:07;;;;;;;6.10;5.10;;;;;;;;;;5038789;28;20216;-84
2021/03/31 07:22:35;;;;;;;6.28;4.70;;;;;;;;;;5037356;28;20202;-84
2021/03/31 07:25:02;;;;;;;6.93;5.45;;;;;;;;;;5037224;28;20732;-84
2021/03/31 07:27:31;;;;;;;12.55;5.43;;;;;;;;;;5041739;28;20194;-83
2021/03/31 07:30:06;;;;;;;11.68;6.38;;;;;;;;;;5043308;28;20214;-85
2021/03/31 07:32:40;;;;;;;6.57;5.03;;;;;;;;;;5042516;28;20606;-84
2021/03/31 07:35:09;;;;;;;8.57;5.80;;;;;;;;;;5042297;28;20617;-84
2021/03/31 07:37:37;;;;;;;8.15;5.32;;;;;;;;;;5041812;28;20202;-85
2021/03/31 07:40:08;;;;;;;12.43;6.03;;;;;;;;;;5041501;28;20202;-84
2021/03/31 07:42:35;;;;;;;10.75;6.50;;;;;;;;;;5041928;28;20204;-85
2021/03/31 07:45:07;;;;;;;6.80;5.78;;;;;;;;;;5041036;28;20225;-84
2021/03/31 07:47:35;;;;;;;6.43;5.43;;;;;;;;;;5016670;23;20664;-86
2021/03/31 07:50:04;;;;;;;7.85;5.63;;;;;;;;;;5014270;28;20687;-86
2021/03/31 07:52:53;;;;;;;14.98;5.82;;;;;;;;;;5014776;28;20723;-85
2021/03/31 07:55:39;;;;;;;7.97;5.78;;;;;;;;;;5015546;28;20207;-86
2021/03/31 07:58:25;;;;;;;8.13;5.15;;;;;;;;;;4996060;28;20215;-86
2021/03/31 08:01:11;;;;;;;8.85;6.28;;;;;;;;;;4989790;28;20257;-86
2021/03/31 08:03:41;;;;;;;7.53;5.10;;;;;;;;;;4996347;28;20257;-86
2021/03/31 08:06:12;;;;;;;7.78;5.72;;;;;;;;;;4995041;28;20725;-86
2021/03/31 08:08:56;;;;;;;6.47;5.57;;;;;;;;;;4996149;28;20202;-86
2021/03/31 08:11:52;;;;;;;9.32;5.45;;;;;;;;;;4995404;28;20211;-87
2021/03/31 08:14:45;;;;;;;5.90;5.30;;;;;;;;;;4995525;28;20207;-87
2021/03/31 08:17:15;;;;;;;7.25;5.18;;;;;;;;;;4995235;28;20597;-87
2021/03/31 08:19:45;;;;;;;6.85;5.18;;;;;;;;;;4987112;28;20204;-88
2021/03/31 08:22:22;;;;;;;5.50;4.93;;;;;;;;;;4995271;28;20207;-87
2021/03/31 08:24:52;;;;;;;8.32;6.47;;;;;;;;;;4994810;28;20214;-87
2021/03/31 08:27:21;;;;;;;6.68;5.40;;;;;;;;;;4994944;28;20231;-87
2021/03/31 08:29:54;;;;;;;9.65;4.82;;;;;;;;;;4994608;28;20222;-88
2021/03/31 08:32:25;;;;;;;11.43;5.97;;;;;;;;;;4994546;28;20220;-87
2021/03/31 08:34:53;;;;;;;6.13;5.13;;;;;;;;;;4994110;28;20195;-87
2021/03/31 08:37:28;;;;;;;6.57;4.43;;;;;;;;;;4993951;28;20584;-88
2021/03/31 08:40:01;;;;;;;9.50;5.35;;;;;;;;;;4994534;28;20547;-88
2021/03/31 08:42:28;;;;;;;7.50;5.60;;;;;;;;;;4994300;28;20674;-88
2021/03/31 08:44:59;;;;;;;9.13;6.03;;;;;;;;;;4994125;28;21498;-88
2021/03/31 08:47:31;;;;;;;8.73;4.90;;;;;;;;;;4987037;28;20243;-88
2021/03/31 08:50:00;;;;;;;6.13;4.50;;;;;;;;;;4994597;28;20211;-88
2021/03/31 08:52:33;;;;;;;7.68;5.63;;;;;;;;;;4994491;28;20220;-88
2021/03/31 08:55:03;;;;;;;6.88;5.20;;;;;;;;;;4993806;28;20661;-88
2021/03/31 08:57:31;;;;;;;6.85;5.07;;;;;;;;;;4994160;28;20223;-86
2021/03/31 09:00:00;;;;;;;6.30;4.47;;;;;;;;;;4994451;28;20293;-88
2021/03/31 09:02:31;;;;;;;7.25;5.35;;;;;;;;;;4994571;28;20200;-88
2021/03/31 09:05:00;;;;;;;5.65;5.05;;;;;;;;;;4994660;28;20200;-88
2021/03/31 09:07:27;;;;;;;7.43;5.80;;;;;;;;;;4993833;28;20587;-87
2021/03/31 09:09:57;;;;;;;19.02;7.38;;;;;;;;;;4993436;28;20227;-87
2021/03/31 09:12:26;;;;;;;8.20;5.85;;;;;;;;;;4993614;28;20751;-88
2021/03/31 09:14:55;;;;;;;8.52;6.15;;;;;;;;;;4994841;28;20206;-87
2021/03/31 09:17:25;;;;;;;7.72;6.32;;;;;;;;;;4995161;28;20274;-87
2021/03/31 09:19:56;;;;;;;7.88;5.30;;;;;;;;;;4995367;28;20227;-88
2021/03/31 09:22:25;;;;;;;8.10;6.20;;;;;;;;;;4995369;28;20207;-87
2021/03/31 09:24:55;;;;;;;8.40;5.68;;;;;;;;;;4995932;28;20295;-87
2021/03/31 09:27:25;;;;;;;8.20;6.38;;;;;;;;;;4996812;28;20216;-87
2021/03/31 09:29:54;;;;;;;6.50;5.50;;;;;;;;;;5007520;28;20210;-87
2021/03/31 09:32:26;;;;;;;7.30;5.57;;;;;;;;;;5010225;28;20207;-86
2021/03/31 09:34:54;;;;;;;13.27;6.38;;;;;;;;;;5010866;28;20279;-86
2021/03/31 09:37:21;;;;;;;10.57;6.30;;;;;;;;;;5001147;28;20645;-87
2021/03/31 09:39:50;;;;;;;9.35;5.95;;;;;;;;;;4993875;28;20528;-87
2021/03/31 09:42:21;;;;;;;8.27;5.95;;;;;;;;;;4995037;28;20211;-87
2021/03/31 09:44:50;;;;;;;7.60;6.45;;;;;;;;;;4994876;28;20203;-86
2021/03/31 09:47:18;;;;;;;6.88;5.40;;;;;;;;;;4993653;28;20281;-87
2021/03/31 09:49:45;;;;;;;8.73;6.35;;;;;;;;;;4993482;28;20226;-87
2021/03/31 09:52:14;;;;;;;10.18;7.38;;;;;;;;;;4993890;28;20210;-88
2021/03/31 09:54:44;;;;;;;8.43;6.25;;;;;;;;;;4993697;28;20204;-87
2021/03/31 09:57:12;;;;;;;10.20;6.90;;;;;;;;;;4993388;28;20278;-87
2021/03/31 09:59:39;;;;;;;7.60;6.10;;;;;;;;;;4994386;28;20250;-87
2021/03/31 10:02:07;;;;;;;8.23;6.50;;;;;;;;;;4993325;28;20211;-87
2021/03/31 10:04:36;;;;;;;9.57;6.80;;;;;;;;;;4993916;28;20203;-88
2021/03/31 10:07:07;;;;;;;16.00;9.00;;;;;;;;;;4993502;28;20224;-87
2021/03/31 10:09:41;;;;;;;11.00;7.05;;;;;;;;;;4993692;28;20196;-87
2021/03/31 10:12:10;;;;;;;8.80;7.93;;;;;;;;;;4993108;28;20420;-86
2021/03/31 10:14:46;;;;;;;8.20;6.68;;;;;;;;;;4993447;28;20269;-86
2021/03/31 10:17:14;;;;;;;9.15;8.25;;;;;;;;;;4993518;28;20219;-87
2021/03/31 10:19:41;;;;;;;8.52;7.35;;;;;;;;;;4993133;28;20215;-86
2021/03/31 10:22:09;;;;;;;8.27;6.55;;;;;;;;;;4993224;28;20216;-86
2021/03/31 10:24:40;;;;;;;12.55;8.43;;;;;;;;;;4993234;28;20208;-87
2021/03/31 10:27:08;;;;;;;10.23;7.20;;;;;;;;;;4992890;28;20212;-86
2021/03/31 10:29:36;;;;;;;7.25;6.55;;;;;;;;;;4992818;28;20211;-87
2021/03/31 10:32:05;;;;;;;7.82;7.03;;;;;;;;;;4992854;28;20666;-87
2021/03/31 10:34:40;;;;;;;12.35;7.32;;;;;;;;;;4993113;28;20662;-87
2021/03/31 10:37:16;;;;;;;10.68;7.45;;;;;;;;;;4992672;28;20223;-87
2021/03/31 10:40:00;;;;;;;9.95;7.47;;;;;;;;;;4993479;28;20214;-87
2021/03/31 10:48:37;;;;;;;9.07;7.97;;;;;;;;;;4993373;28;20235;-87
2021/03/31 10:51:10;;;;;;;9.15;7.53;;;;;;;;;;4993355;28;20299;-87
2021/03/31 10:53:40;;;;;;;8.88;6.85;;;;;;;;;;4993332;28;20266;-88
2021/03/31 10:56:08;;;;;;;10.13;6.85;;;;;;;;;;4992699;28;20683;-88
2021/03/31 10:58:36;;;;;;;10.50;8.18;;;;;;;;;;4993352;28;20200;-86
2021/03/31 11:01:03;;;;;;;9.20;7.35;;;;;;;;;;4993095;28;20242;-86
2021/03/31 11:03:30;;;;;;;8.90;7.55;;;;;;;;;;4993351;28;20204;-87
2021/03/31 11:05:57;;;;;;;11.70;7.80;;;;;;;;;;4992842;28;20227;-87
2021/03/31 11:08:24;;;;;;;9.82;8.60;;;;;;;;;;4992988;28;20200;-88
2021/03/31 11:10:51;;;;;;;13.02;9.60;;;;;;;;;;4993026;28;20195;-87
2021/03/31 11:13:20;;;;;;;8.40;7.57;;;;;;;;;;4992675;28;20685;-88
2021/03/31 11:15:47;;;;;;;9.38;8.13;;;;;;;;;;4992960;28;20204;-87
2021/03/31 11:18:19;;;;;;;8.23;7.25;;;;;;;;;;4993326;28;20330;-86
2021/03/31 11:26:12;;;;;;;10.60;7.45;;;;;;;;;;4992032;28;20673;-88
2021/03/31 11:28:42;;;;;;;10.93;8.35;;;;;;;;;;4992484;28;20203;-87
2021/03/31 11:31:10;;;;;;;9.23;7.43;;;;;;;;;;4992710;28;20207;-88
2021/03/31 11:33:37;;;;;;;8.73;7.80;;;;;;;;;;4992639;28;20647;-88
2021/03/31 11:36:05;;;;;;;9.40;7.95;;;;;;;;;;4992609;28;20228;-87
2021/03/31 11:38:32;;;;;;;10.20;7.85;;;;;;;;;;4993510;28;20200;-88
2021/03/31 11:40:59;;;;;;;10.07;8.82;;;;;;;;;;4993298;28;20196;-88
2021/03/31 11:43:26;;;;;;;10.05;8.63;;;;;;;;;;4991642;28;20207;-87
2021/03/31 11:45:54;;;;;;;9.95;8.95;;;;;;;;;;4991193;28;20234;-88
2021/03/31 11:48:21;;;;;;;10.43;9.35;;;;;;;;;;4991580;28;20224;-87
2021/03/31 11:50:48;;;;;;;14.20;9.95;;;;;;;;;;4991700;28;20208;-88
2021/03/31 11:53:14;;;;;;;11.50;8.90;;;;;;;;;;4994225;28;20231;-87
2021/03/31 11:55:42;;;;;;;11.55;8.85;;;;;;;;;;4993537;28;20678;-89
2021/03/31 11:58:08;;;;;;;12.93;9.30;;;;;;;;;;4993394;28;20295;-87
2021/03/31 12:00:36;;;;;;;11.88;9.93;;;;;;;;;;4991192;28;20192;-87
2021/03/31 12:03:05;;;;;;;12.65;9.50;;;;;;;;;;4991383;28;20393;-87
2021/03/31 12:05:32;;;;;;;11.80;9.73;;;;;;;;;;4990594;28;20709;-87
2021/03/31 12:07:59;;;;;;;12.93;10.43;;;;;;;;;;4990922;28;20204;-87
2021/03/31 12:10:26;;;;;;;11.25;9.98;;;;;;;;;;4990921;28;20733;-88
2021/03/31 12:12:53;;;;;;;10.88;9.75;;;;;;;;;;4992964;28;20203;-86
2021/03/31 12:15:20;;;;;;;11.68;9.02;;;;;;;;;;4993962;28;20280;-87
2021/03/31 12:17:47;;;;;;;11.27;10.15;;;;;;;;;;4994832;28;20219;-88
2021/03/31 12:20:17;;;;;;;10.70;8.32;;;;;;;;;;4995430;28;20568;-87
2021/03/31 12:22:46;;;;;;;11.38;8.55;;;;;;;;;;4995371;28;20557;-88
2021/03/31 12:25:13;;;;;;;10.63;9.05;;;;;;;;;;4994646;28;20220;-87
2021/03/31 12:27:43;;;;;;;10.20;8.40;;;;;;;;;;4994477;28;20725;-87
2021/03/31 12:30:13;;;;;;;12.07;10.52;;;;;;;;;;4994830;28;20203;-87
2021/03/31 12:32:40;;;;;;;16.33;9.68;;;;;;;;;;4994935;28;20208;-87
2021/03/31 12:35:08;;;;;;;11.57;9.68;;;;;;;;;;4994240;28;20210;-87
2021/03/31 12:37:36;;;;;;;13.05;11.02;;;;;;;;;;4994084;28;20235;-87
2021/03/31 12:40:05;;;;;;;12.73;9.65;;;;;;;;;;4994284;28;20214;-87
2021/03/31 12:42:32;;;;;;;12.45;9.85;;;;;;;;;;4994114;28;20218;-87
2021/03/31 12:44:58;;;;;;;8.90;8.07;;;;;;;;;;4994111;28;20224;-86
2021/03/31 12:47:25;;;;;;;10.60;8.73;;;;;;;;;;4993266;28;20219;-87
2021/03/31 12:49:53;;;;;;;13.00;8.48;;;;;;;;;;4993638;28;20231;-86
2021/03/31 12:52:26;;;;;;;9.55;8.25;;;;;;;;;;4995016;28;20242;-87
2021/03/31 12:54:54;;;;;;;12.57;8.98;;;;;;;;;;4994405;28;20207;-87
2021/03/31 12:57:23;;;;;;;12.77;10.60;;;;;;;;;;4994082;28;20255;-87
2021/03/31 12:59:50;;;;;;;13.23;10.32;;;;;;;;;;4995038;28;20666;-87
2021/03/31 13:02:17;;;;;;;10.30;8.60;;;;;;;;;;4994549;28;20208;-87
2021/03/31 13:04:43;;;;;;;10.02;9.00;;;;;;;;;;4994603;28;20231;-87
2021/03/31 13:07:11;;;;;;;11.85;8.82;;;;;;;;;;4993973;28;20236;-87
2021/03/31 13:09:38;;;;;;;10.77;8.35;;;;;;;;;;4993737;28;20211;-87
2021/03/31 13:12:16;;;;;;;12.48;9.32;;;;;;;;;;4993866;28;20195;-87
2021/03/31 13:15:12;;;;;;;13.32;8.45;;;;;;;;;;4993712;28;20673;-87
2021/03/31 13:17:51;;;;;;;11.32;9.93;;;;;;;;;;4993542;28;20220;-87
2021/03/31 13:23:06;;;;;;;10.85;8.75;;;;;;;;;;4993017;28;20246;-87
2021/03/31 13:25:35;;;;;;;13.32;9.93;;;;;;;;;;4993230;28;20314;-86
2021/03/31 13:28:26;;;;;;;12.75;9.43;;;;;;;;;;4993294;28;20262;-87
2021/03/31 13:30:58;;;;;;;11.77;8.57;;;;;;;;;;4994030;28;20295;-86
2021/03/31 13:33:26;;;;;;;14.35;10.75;;;;;;;;;;4993561;28;20215;-87
2021/03/31 13:35:59;;;;;;;10.05;9.00;;;;;;;;;;4993037;28;20223;-86
2021/03/31 13:38:31;;;;;;;13.32;10.15;;;;;;;;;;4993463;28;20207;-87
2021/03/31 13:40:58;;;;;;;11.98;8.75;;;;;;;;;;4993549;28;20204;-87
2021/03/31 13:43:26;;;;;;;11.10;9.82;;;;;;;;;;4992909;28;20208;-87
2021/03/31 13:45:53;;;;;;;12.70;10.45;;;;;;;;;;5018707;23;20215;-84
2021/03/31 13:48:29;;;;;;;10.60;9.48;;;;;;;;;;5037579;28;20222;-86
2021/03/31 13:50:56;;;;;;;10.90;8.68;;;;;;;;;;5037370;28;20279;-85
2021/03/31 13:53:23;;;;;;;10.38;9.20;;;;;;;;;;5037549;28;20266;-85
2021/03/31 13:55:50;;;;;;;11.00;8.73;;;;;;;;;;5036218;28;20203;-85
2021/03/31 13:58:17;;;;;;;14.35;9.88;;;;;;;;;;5017593;28;20234;-86
2021/03/31 14:00:45;;;;;;;11.88;9.63;;;;;;;;;;5018354;28;20207;-86
2021/03/31 14:03:12;;;;;;;10.60;8.77;;;;;;;;;;5018346;28;20581;-86
2021/03/31 14:05:39;;;;;;;11.77;9.30;;;;;;;;;;5016569;28;20227;-85
2021/03/31 14:08:06;;;;;;;9.75;7.97;;;;;;;;;;5017848;28;20223;-85
2021/03/31 14:10:35;;;;;;;10.88;9.20;;;;;;;;;;5018118;28;20214;-86
2021/03/31 14:13:02;;;;;;;10.63;7.53;;;;;;;;;;5016836;28;20207;-85
2021/03/31 14:15:29;;;;;;;11.07;9.27;;;;;;;;;;5016953;28;20266;-85
2021/03/31 14:17:56;;;;;;;11.30;9.35;;;;;;;;;;5016515;28;20231;-85
2021/03/31 14:20:23;;;;;;;11.65;8.50;;;;;;;;;;5017086;28;20211;-84
2021/03/31 14:22:51;;;;;;;12.45;9.43;;;;;;;;;;5017273;28;20206;-85
2021/03/31 14:25:22;;;;;;;10.43;7.78;;;;;;;;;;5016772;28;20219;-82
2021/03/31 14:27:49;;;;;;;11.75;7.97;;;;;;;;;;5016771;28;20223;-86
2021/03/31 14:30:20;;;;;;;9.98;7.82;;;;;;;;;;5017569;28;20206;-85
2021/03/31 14:32:47;;;;;;;8.38;7.25;;;;;;;;;;5017511;28;20202;-85
2021/03/31 14:35:15;;;;;;;9.02;6.47;;;;;;;;;;5016037;28;20562;-84
2021/03/31 14:37:42;;;;;;;12.45;8.38;;;;;;;;;;5016284;28;20223;-85
2021/03/31 14:40:10;;;;;;;10.50;7.53;;;;;;;;;;5016885;28;20199;-85
2021/03/31 14:42:37;;;;;;;7.90;6.47;;;;;;;;;;5017153;28;20215;-86
2021/03/31 14:45:06;;;;;;;12.55;8.02;;;;;;;;;;5015956;28;20693;-86
2021/03/31 14:47:34;;;;;;;9.48;6.80;;;;;;;;;;5032106;28;20234;-86
2021/03/31 14:50:02;;;;;;;8.40;5.72;;;;;;;;;;5036676;28;20297;-86
2021/03/31 15:00:47;;;;;;;8.52;6.22;;;;;;;;;;5006034;28;20205;-85
2021/03/31 15:03:14;;;;;;;7.45;5.88;;;;;;;;;;5038684;28;20202;-85
2021/03/31 15:05:40;;;;;;;11.80;6.90;;;;;;;;;;5036660;28;20225;-84
2021/03/31 15:08:08;;;;;;;10.68;7.03;;;;;;;;;;5036654;28;20608;-85
2021/03/31 15:10:35;;;;;;;9.68;6.95;;;;;;;;;;5037190;28;20210;-86
2021/03/31 15:13:02;;;;;;;8.57;7.68;;;;;;;;;;5036363;28;20586;-84
2021/03/31 15:15:29;;;;;;;9.27;5.15;;;;;;;;;;5036173;28;20209;-86
2021/03/31 15:17:56;;;;;;;10.25;5.72;;;;;;;;;;5036684;28;20219;-85